Time;durP1;ratioP1;P1;durP2;ratioP2;P2;SDS_P1;SDS_P2;PMS_P1;PMS_P2;Temp;Humidity;BMP_temperature;BMP_pressure;BME280_temperature;BME280_humidity;BME280_pressure;Samples;Min_cycle;Max_cycle;Signal;HPM_P1;HPM_P2
2023/09/14 00:01:33;;;;;;;;;;;;;;;;;;6154413;23;19987;-88
2023/09/14 00:03:59;;;;;;;;;;;;;;;;;;6153378;23;19904;-88
2023/09/14 00:06:25;;;;;;;;;;;;;;;;;;6152925;23;19939;-88
2023/09/14 00:08:51;;;;;;;;;;;;;;;;;;6152442;23;20347;-88
2023/09/14 00:11:17;;;;;;;;;;;;;;;;;;6151233;23;19904;-89
2023/09/14 00:13:43;;;;;;;;;;;;;;;;;;6151746;23;19987;-88
2023/09/14 00:16:09;;;;;;;;;;;;;;;;;;6152954;23;19955;-88
2023/09/14 00:18:35;;;;;;;;;;;;;;;;;;6153212;23;19956;-88
2023/09/14 00:21:01;;;;;;;;;;;;;;;;;;6179128;23;19908;-88
2023/09/14 00:23:27;;;;;;;;;;;;;;;;;;6153453;23;20019;-89
2023/09/14 00:25:53;;;;;;;;;;;;;;;;;;6179512;23;19908;-88
2023/09/14 00:28:19;;;;;;;;;;;;;;;;;;6153441;23;19943;-88
2023/09/14 00:30:45;;;;;;;;;;;;;;;;;;6153981;23;19916;-88
2023/09/14 00:33:10;;;;;;;;;;;;;;;;;;6152612;23;20227;-88
2023/09/14 00:35:36;;;;;;;;;;;;;;;;;;6179698;23;20003;-89
2023/09/14 00:38:03;;;;;;;;;;;;;;;;;;6179871;23;19913;-89
2023/09/14 00:40:29;;;;;;;;;;;;;;;;;;6152249;23;20034;-88
2023/09/14 00:42:55;;;;;;;;;;;;;;;;;;6155972;23;19944;-88
2023/09/14 00:45:21;;;;;;;;;;;;;;;;;;6151077;23;20208;-88
2023/09/14 00:47:47;;;;;;;;;;;;;;;;;;6154301;23;19975;-89
2023/09/14 00:50:17;;;;;;;;;;;;;;;;;;6180110;23;19962;-89
2023/09/14 00:52:43;;;;;;;;;;;;;;;;;;6155618;23;19909;-89
2023/09/14 00:55:09;;;;;;;;;;;;;;;;;;6155702;23;20231;-90
2023/09/14 00:57:35;;;;;;;;;;;;;;;;;;6181699;23;20326;-90
2023/09/14 01:00:01;;;;;;;;;;;;;;;;;;6155304;23;19915;-89
2023/09/14 01:02:27;;;;;;;;;;;;;;;;;;6154358;23;19909;-90
2023/09/14 01:04:53;;;;;;;;;;;;;;;;;;6153438;23;19963;-89
2023/09/14 01:07:19;;;;;;;;;;;;;;;;;;6155011;23;19951;-88
2023/09/14 01:09:45;;;;;;;;;;;;;;;;;;6153384;23;20297;-88
2023/09/14 01:12:13;;;;;;;;;;;;;;;;;;6154070;23;19931;-88
2023/09/14 01:14:39;;;;;;;;;;;;;;;;;;6151470;23;20331;-88
2023/09/14 01:17:05;;;;;;;;;;;;;;;;;;6153796;23;19911;-89
2023/09/14 01:19:31;;;;;;;;;;;;;;;;;;6153145;23;19908;-88
2023/09/14 01:21:57;;;;;;;;;;;;;;;;;;6178193;23;20357;-89
2023/09/14 01:24:23;;;;;;;;;;;;;;;;;;6152966;23;19908;-89
2023/09/14 01:26:49;;;;;;;;;;;;;;;;;;6179223;23;19975;-88
2023/09/14 01:29:15;;;;;;;;;;;;;;;;;;6153515;23;19936;-89
2023/09/14 01:31:42;;;;;;;;;;;;;;;;;;6152201;23;20331;-88
2023/09/14 01:34:08;;;;;;;;;;;;;;;;;;6153252;23;19927;-89
2023/09/14 01:36:34;;;;;;;;;;;;;;;;;;6151923;23;20270;-89
2023/09/14 01:38:59;;;;;;;;;;;;;;;;;;6152288;23;19931;-88
2023/09/14 01:41:25;;;;;;;;;;;;;;;;;;6157338;22;19930;-89
2023/09/14 01:43:51;;;;;;;;;;;;;;;;;;6152976;23;19995;-87
2023/09/14 01:46:17;;;;;;;;;;;;;;;;;;6151181;23;19968;-87
2023/09/14 01:48:43;;;;;;;;;;;;;;;;;;6151086;23;19914;-88
2023/09/14 01:51:09;;;;;;;;;;;;;;;;;;6151206;23;19908;-87
2023/09/14 01:53:35;;;;;;;;;;;;;;;;;;6150910;23;19962;-88
2023/09/14 01:56:01;;;;;;;;;;;;;;;;;;6151561;23;19916;-87
2023/09/14 01:58:27;;;;;;;;;;;;;;;;;;6184483;23;19912;-93
2023/09/14 02:00:53;;;;;;;;;;;;;;;;;;6157765;23;20222;-92
2023/09/14 02:03:19;;;;;;;;;;;;;;;;;;6185679;23;20331;-93
2023/09/14 02:05:45;;;;;;;;;;;;;;;;;;6159996;23;19911;-94
2023/09/14 02:08:11;;;;;;;;;;;;;;;;;;6159060;23;20095;-93
2023/09/14 02:10:37;;;;;;;;;;;;;;;;;;6160029;23;19915;-94
2023/09/14 02:13:02;;;;;;;;;;;;;;;;;;6157582;23;19991;-93
2023/09/14 02:15:35;;;;;;;;;;;;;;;;;;6159435;23;19912;-93
2023/09/14 02:18:01;;;;;;;;;;;;;;;;;;6155397;23;20347;-89
2023/09/14 02:20:27;;;;;;;;;;;;;;;;;;6179840;23;19938;-89
2023/09/14 02:22:53;;;;;;;;;;;;;;;;;;6153913;23;19908;-89
2023/09/14 02:25:19;;;;;;;;;;;;;;;;;;6153643;23;19904;-89
2023/09/14 02:27:45;;;;;;;;;;;;;;;;;;6153417;23;19935;-89
2023/09/14 02:30:11;;;;;;;;;;;;;;;;;;6179630;23;19927;-89
2023/09/14 02:32:37;;;;;;;;;;;;;;;;;;6153985;23;19955;-89
2023/09/14 02:35:03;;;;;;;;;;;;;;;;;;6179587;23;20638;-88
2023/09/14 02:37:30;;;;;;;;;;;;;;;;;;6154727;23;19947;-89
2023/09/14 02:39:55;;;;;;;;;;;;;;;;;;6154372;23;20282;-89
2023/09/14 02:42:21;;;;;;;;;;;;;;;;;;6155768;23;19966;-89
2023/09/14 02:44:47;;;;;;;;;;;;;;;;;;6155195;23;19905;-89
2023/09/14 02:47:13;;;;;;;;;;;;;;;;;;6153239;23;19912;-89
2023/09/14 02:49:42;;;;;;;;;;;;;;;;;;6153688;23;20019;-89
2023/09/14 02:52:07;;;;;;;;;;;;;;;;;;6153985;23;19939;-89
2023/09/14 02:54:34;;;;;;;;;;;;;;;;;;6154248;23;19904;-89
2023/09/14 02:57:00;;;;;;;;;;;;;;;;;;6154404;23;19927;-89
2023/09/14 02:59:26;;;;;;;;;;;;;;;;;;6180891;23;19979;-89
2023/09/14 03:01:52;;;;;;;;;;;;;;;;;;6154509;23;19904;-89
2023/09/14 03:04:18;;;;;;;;;;;;;;;;;;6153728;23;19908;-89
2023/09/14 03:06:44;;;;;;;;;;;;;;;;;;6154151;23;19935;-89
2023/09/14 03:09:10;;;;;;;;;;;;;;;;;;6153309;23;19904;-88
2023/09/14 03:11:36;;;;;;;;;;;;;;;;;;6153591;23;19927;-88
2023/09/14 03:14:02;;;;;;;;;;;;;;;;;;6152254;23;20118;-88
2023/09/14 03:16:28;;;;;;;;;;;;;;;;;;6154307;23;19912;-89
2023/09/14 03:18:54;;;;;;;;;;;;;;;;;;6152715;23;20484;-88
2023/09/14 03:21:20;;;;;;;;;;;;;;;;;;6179422;23;19908;-88
2023/09/14 03:23:46;;;;;;;;;;;;;;;;;;6179351;23;19928;-89
2023/09/14 03:26:12;;;;;;;;;;;;;;;;;;6153589;23;20321;-88
2023/09/14 03:28:38;;;;;;;;;;;;;;;;;;6152935;23;19987;-89
2023/09/14 03:31:04;;;;;;;;;;;;;;;;;;6180434;23;19912;-89
2023/09/14 03:33:30;;;;;;;;;;;;;;;;;;6153466;23;19919;-88
2023/09/14 03:35:55;;;;;;;;;;;;;;;;;;6153033;23;19909;-89
2023/09/14 03:38:21;;;;;;;;;;;;;;;;;;6153303;23;19911;-88
2023/09/14 03:40:47;;;;;;;;;;;;;;;;;;6154361;23;19911;-89
2023/09/14 03:43:13;;;;;;;;;;;;;;;;;;6154933;23;20259;-89
2023/09/14 03:45:39;;;;;;;;;;;;;;;;;;6154438;23;19909;-89
2023/09/14 03:48:05;;;;;;;;;;;;;;;;;;6154428;23;19904;-88
2023/09/14 03:50:31;;;;;;;;;;;;;;;;;;6180990;23;19935;-88
2023/09/14 03:52:57;;;;;;;;;;;;;;;;;;6154986;23;20296;-89
2023/09/14 03:55:23;;;;;;;;;;;;;;;;;;6154501;23;19956;-89
2023/09/14 03:57:49;;;;;;;;;;;;;;;;;;6154081;23;20020;-89
2023/09/14 04:00:15;;;;;;;;;;;;;;;;;;6154717;23;19915;-89
2023/09/14 04:02:41;;;;;;;;;;;;;;;;;;6154468;23;19916;-88
2023/09/14 04:05:07;;;;;;;;;;;;;;;;;;6153912;23;19913;-88
2023/09/14 04:07:33;;;;;;;;;;;;;;;;;;6154147;23;20433;-88
2023/09/14 04:09:59;;;;;;;;;;;;;;;;;;6154659;23;19912;-89
2023/09/14 04:12:24;;;;;;;;;;;;;;;;;;6180581;23;19908;-88
2023/09/14 04:14:50;;;;;;;;;;;;;;;;;;6154047;23;19915;-88
2023/09/14 04:17:16;;;;;;;;;;;;;;;;;;6155460;23;19908;-87
2023/09/14 04:19:43;;;;;;;;;;;;;;;;;;6155018;23;20232;-88
2023/09/14 04:22:09;;;;;;;;;;;;;;;;;;6154191;23;20375;-88
2023/09/14 04:24:35;;;;;;;;;;;;;;;;;;6155570;23;19946;-87
2023/09/14 04:27:01;;;;;;;;;;;;;;;;;;6153970;23;19993;-88
2023/09/14 04:29:27;;;;;;;;;;;;;;;;;;6155330;23;19908;-87
2023/09/14 04:31:53;;;;;;;;;;;;;;;;;;6155607;23;19918;-88
2023/09/14 04:34:19;;;;;;;;;;;;;;;;;;6155387;23;19987;-88
2023/09/14 04:36:45;;;;;;;;;;;;;;;;;;6155497;23;19970;-92
2023/09/14 04:39:11;;;;;;;;;;;;;;;;;;6166579;23;19951;-92
2023/09/14 04:41:37;;;;;;;;;;;;;;;;;;6166989;23;19932;-92
2023/09/14 04:44:02;;;;;;;;;;;;;;;;;;6169792;23;19974;-91
2023/09/14 04:46:29;;;;;;;;;;;;;;;;;;6166185;23;19915;-90
2023/09/14 04:48:55;;;;;;;;;;;;;;;;;;6165970;23;19920;-90
2023/09/14 04:51:23;;;;;;;;;;;;;;;;;;6164712;23;19904;-91
2023/09/14 04:53:48;;;;;;;;;;;;;;;;;;6165715;23;19940;-93
2023/09/14 04:56:14;;;;;;;;;;;;;;;;;;6164317;23;19924;-91
2023/09/14 04:58:40;;;;;;;;;;;;;;;;;;6165419;23;19904;-92
2023/09/14 05:01:06;;;;;;;;;;;;;;;;;;6163981;23;19935;-91
2023/09/14 05:03:32;;;;;;;;;;;;;;;;;;6163918;23;19904;-93
2023/09/14 05:05:58;;;;;;;;;;;;;;;;;;6164629;23;19993;-91
2023/09/14 05:08:25;;;;;;;;;;;;;;;;;;6163437;23;19908;-89
2023/09/14 05:10:51;;;;;;;;;;;;;;;;;;6162533;23;19916;-91
2023/09/14 05:13:24;;;;;;;;;;;;;;;;;;6159863;23;19904;-93
2023/09/14 05:15:50;;;;;;;;;;;;;;;;;;6161275;23;19936;-93
2023/09/14 05:18:16;;;;;;;;;;;;;;;;;;6163370;23;20323;-92
2023/09/14 05:20:42;;;;;;;;;;;;;;;;;;6163413;23;19938;-92
2023/09/14 05:23:08;;;;;;;;;;;;;;;;;;6164925;23;19955;-92
2023/09/14 05:25:34;;;;;;;;;;;;;;;;;;6166068;23;20325;-90
2023/09/14 05:28:00;;;;;;;;;;;;;;;;;;6167093;23;19948;-92
2023/09/14 05:30:26;;;;;;;;;;;;;;;;;;6165982;23;19940;-89
2023/09/14 05:32:52;;;;;;;;;;;;;;;;;;6165989;23;19908;-92
2023/09/14 05:35:18;;;;;;;;;;;;;;;;;;6165450;23;19918;-91
2023/09/14 05:37:44;;;;;;;;;;;;;;;;;;6161078;23;19960;-89
2023/09/14 05:40:11;;;;;;;;;;;;;;;;;;6155886;23;20186;-89
2023/09/14 05:42:37;;;;;;;;;;;;;;;;;;6158193;23;19919;-88
2023/09/14 05:45:03;;;;;;;;;;;;;;;;;;6154407;23;19912;-89
2023/09/14 05:47:29;;;;;;;;;;;;;;;;;;6156159;23;19914;-87
2023/09/14 05:49:55;;;;;;;;;;;;;;;;;;6153717;23;20428;-87
2023/09/14 05:52:21;;;;;;;;;;;;;;;;;;6154031;23;19908;-86
2023/09/14 05:54:47;;;;;;;;;;;;;;;;;;6153366;23;19913;-87
2023/09/14 05:57:14;;;;;;;;;;;;;;;;;;6154746;23;19908;-86
2023/09/14 05:59:40;;;;;;;;;;;;;;;;;;6153706;23;19905;-87
2023/09/14 06:02:06;;;;;;;;;;;;;;;;;;6154515;23;20238;-87
2023/09/14 06:04:32;;;;;;;;;;;;;;;;;;6153329;23;19936;-87
2023/09/14 06:06:57;;;;;;;;;;;;;;;;;;6153671;23;19916;-87
2023/09/14 06:09:23;;;;;;;;;;;;;;;;;;6155424;23;19908;-87
2023/09/14 06:11:49;;;;;;;;;;;;;;;;;;6153405;23;19915;-88
2023/09/14 06:14:15;;;;;;;;;;;;;;;;;;6153792;23;19904;-87
2023/09/14 06:16:41;;;;;;;;;;;;;;;;;;6153752;23;19918;-87
2023/09/14 06:19:07;;;;;;;;;;;;;;;;;;6154008;23;19922;-87
2023/09/14 06:21:33;;;;;;;;;;;;;;;;;;6154102;23;19908;-87
2023/09/14 06:23:59;;;;;;;;;;;;;;;;;;6153494;23;19908;-87
2023/09/14 06:26:25;;;;;;;;;;;;;;;;;;6153739;23;19904;-88
2023/09/14 06:28:51;;;;;;;;;;;;;;;;;;6179855;23;19905;-87
2023/09/14 06:31:17;;;;;;;;;;;;;;;;;;6154412;23;19908;-87
2023/09/14 06:33:43;;;;;;;;;;;;;;;;;;6153262;23;20294;-87
2023/09/14 06:36:09;;;;;;;;;;;;;;;;;;6153924;23;19912;-87
2023/09/14 06:38:35;;;;;;;;;;;;;;;;;;6149639;23;19908;-89
2023/09/14 06:41:01;;;;;;;;;;;;;;;;;;6178746;23;19947;-87
2023/09/14 06:43:27;;;;;;;;;;;;;;;;;;6156295;23;19991;-88
2023/09/14 06:45:53;;;;;;;;;;;;;;;;;;6153427;23;20238;-88
2023/09/14 06:48:18;;;;;;;;;;;;;;;;;;6152281;23;19904;-87
2023/09/14 06:50:46;;;;;;;;;;;;;;;;;;6153633;23;20398;-87
2023/09/14 06:53:12;;;;;;;;;;;;;;;;;;6179171;23;20362;-87
2023/09/14 06:55:38;;;;;;;;;;;;;;;;;;6152341;23;19919;-87
2023/09/14 06:58:04;;;;;;;;;;;;;;;;;;6151979;23;19931;-87
2023/09/14 07:00:32;;;;;;;;;;;;;;;;;;6152444;23;19908;-87
2023/09/14 07:02:58;;;;;;;;;;;;;;;;;;6179604;23;20490;-88
2023/09/14 07:05:24;;;;;;;;;;;;;;;;;;6151785;23;20002;-87
2023/09/14 07:07:59;;;;;;;;;;;;;;;;;;6154763;23;20200;-87
2023/09/14 07:10:25;;;;;;;;;;;;;;;;;;6153422;23;20565;-87
2023/09/14 07:12:51;;;;;;;;;;;;;;;;;;6153417;23;20242;-87
2023/09/14 07:15:17;;;;;;;;;;;;;;;;;;6179262;23;19946;-87
2023/09/14 07:17:42;;;;;;;;;;;;;;;;;;6180089;23;19916;-87
2023/09/14 07:20:09;;;;;;;;;;;;;;;;;;6153240;23;19909;-87
2023/09/14 07:22:35;;;;;;;;;;;;;;;;;;6152286;23;20024;-87
2023/09/14 07:25:01;;;;;;;;;;;;;;;;;;6153030;23;20528;-87
2023/09/14 07:27:27;;;;;;;;;;;;;;;;;;6153061;23;19936;-88
2023/09/14 07:29:53;;;;;;;;;;;;;;;;;;6152712;23;19932;-87
2023/09/14 07:32:19;;;;;;;;;;;;;;;;;;6152843;23;20250;-89
2023/09/14 07:34:45;;;;;;;;;;;;;;;;;;6179472;23;19919;-87
2023/09/14 07:37:11;;;;;;;;;;;;;;;;;;6152741;23;19912;-88
2023/09/14 07:39:40;;;;;;;;;;;;;;;;;;6153822;23;19904;-88
2023/09/14 07:42:06;;;;;;;;;;;;;;;;;;6154682;23;20319;-86
2023/09/14 07:44:39;;;;;;;;;;;;;;;;;;6155923;23;19971;-87
2023/09/14 07:47:05;;;;;;;;;;;;;;;;;;6153762;23;19908;-87
2023/09/14 07:49:30;;;;;;;;;;;;;;;;;;6180647;23;19962;-87
2023/09/14 07:51:56;;;;;;;;;;;;;;;;;;6155943;23;20274;-87
2023/09/14 07:54:22;;;;;;;;;;;;;;;;;;6155287;23;19928;-87
2023/09/14 07:56:48;;;;;;;;;;;;;;;;;;6181050;23;19916;-87
2023/09/14 07:59:14;;;;;;;;;;;;;;;;;;6155706;23;19912;-87
2023/09/14 08:01:40;;;;;;;;;;;;;;;;;;6155252;23;19911;-87
2023/09/14 08:04:06;;;;;;;;;;;;;;;;;;6153466;23;19915;-87
2023/09/14 08:06:33;;;;;;;;;;;;;;;;;;6181286;23;19904;-89
2023/09/14 08:08:59;;;;;;;;;;;;;;;;;;6157500;23;19942;-91
2023/09/14 08:11:27;;;;;;;;;;;;;;;;;;6157654;23;19909;-92
2023/09/14 08:13:53;;;;;;;;;;;;;;;;;;6155988;23;19908;-91
2023/09/14 08:16:19;;;;;;;;;;;;;;;;;;6157800;23;19934;-92
2023/09/14 08:18:45;;;;;;;;;;;;;;;;;;6157813;23;19999;-92
2023/09/14 08:21:11;;;;;;;;;;;;;;;;;;6157307;23;19950;-91
2023/09/14 08:23:37;;;;;;;;;;;;;;;;;;6158643;23;20294;-90
2023/09/14 08:26:03;;;;;;;;;;;;;;;;;;6158456;23;19932;-92
2023/09/14 08:28:30;;;;;;;;;;;;;;;;;;6155971;23;19908;-88
2023/09/14 08:30:56;;;;;;;;;;;;;;;;;;6155449;23;19904;-88
2023/09/14 08:33:23;;;;;;;;;;;;;;;;;;6154841;23;19935;-87
2023/09/14 08:35:49;;;;;;;;;;;;;;;;;;6154444;23;19912;-88
2023/09/14 08:38:15;;;;;;;;;;;;;;;;;;6156082;23;19904;-88
2023/09/14 08:40:41;;;;;;;;;;;;;;;;;;6155176;23;20338;-87
2023/09/14 08:43:07;;;;;;;;;;;;;;;;;;6183299;22;19916;-88
2023/09/14 08:45:33;;;;;;;;;;;;;;;;;;6155037;23;19908;-87
2023/09/14 08:47:59;;;;;;;;;;;;;;;;;;6181181;23;19908;-87
2023/09/14 08:50:25;;;;;;;;;;;;;;;;;;6154644;23;19915;-88
2023/09/14 08:52:51;;;;;;;;;;;;;;;;;;6154980;23;19904;-87
2023/09/14 08:55:18;;;;;;;;;;;;;;;;;;6180868;23;20710;-88
2023/09/14 08:57:44;;;;;;;;;;;;;;;;;;6154785;23;20031;-88
2023/09/14 09:00:17;;;;;;;;;;;;;;;;;;6155390;23;19955;-88
2023/09/14 09:02:43;;;;;;;;;;;;;;;;;;6154528;23;19912;-88
2023/09/14 09:05:09;;;;;;;;;;;;;;;;;;6153631;23;19908;-87
2023/09/14 09:07:35;;;;;;;;;;;;;;;;;;6154697;23;19931;-87
2023/09/14 09:10:01;;;;;;;;;;;;;;;;;;6155033;23;19914;-88
2023/09/14 09:12:27;;;;;;;;;;;;;;;;;;6154655;23;19910;-88
2023/09/14 09:14:53;;;;;;;;;;;;;;;;;;6154164;23;20015;-88
2023/09/14 09:17:19;;;;;;;;;;;;;;;;;;6155526;23;19962;-92
2023/09/14 09:19:45;;;;;;;;;;;;;;;;;;6157069;23;19912;-90
2023/09/14 09:22:10;;;;;;;;;;;;;;;;;;6157394;23;19950;-90
2023/09/14 09:24:38;;;;;;;;;;;;;;;;;;6183962;23;19905;-92
2023/09/14 09:27:04;;;;;;;;;;;;;;;;;;6157436;23;19915;-93
2023/09/14 09:29:30;;;;;;;;;;;;;;;;;;6157980;23;20318;-91
2023/09/14 09:31:56;;;;;;;;;;;;;;;;;;6157845;23;19904;-93
2023/09/14 09:34:22;;;;;;;;;;;;;;;;;;6184194;23;19915;-91
2023/09/14 09:36:48;;;;;;;;;;;;;;;;;;6156839;23;19956;-92
2023/09/14 09:39:14;;;;;;;;;;;;;;;;;;6157691;23;19919;-92
2023/09/14 09:41:40;;;;;;;;;;;;;;;;;;6159082;23;19908;-92
2023/09/14 09:44:06;;;;;;;;;;;;;;;;;;6162747;23;19916;-93
2023/09/14 09:46:32;;;;;;;;;;;;;;;;;;6156891;23;20220;-87
2023/09/14 09:48:58;;;;;;;;;;;;;;;;;;6155208;23;19987;-88
2023/09/14 09:51:24;;;;;;;;;;;;;;;;;;6154130;23;19971;-88
2023/09/14 09:53:50;;;;;;;;;;;;;;;;;;6155785;23;19905;-87
2023/09/14 09:56:16;;;;;;;;;;;;;;;;;;6154191;23;19908;-88
2023/09/14 09:58:42;;;;;;;;;;;;;;;;;;6155240;23;19954;-88
2023/09/14 10:01:08;;;;;;;;;;;;;;;;;;6154540;23;19900;-87
2023/09/14 10:03:34;;;;;;;;;;;;;;;;;;6154628;23;20327;-88
2023/09/14 10:06:00;;;;;;;;;;;;;;;;;;6153768;23;19912;-87
2023/09/14 10:08:27;;;;;;;;;;;;;;;;;;6154039;23;20327;-87
2023/09/14 10:10:53;;;;;;;;;;;;;;;;;;6154432;23;20617;-87
2023/09/14 10:13:19;;;;;;;;;;;;;;;;;;6152609;23;19936;-88
2023/09/14 10:15:45;;;;;;;;;;;;;;;;;;6153881;23;19912;-87
2023/09/14 10:18:11;;;;;;;;;;;;;;;;;;6180751;23;19940;-87
2023/09/14 10:20:39;;;;;;;;;;;;;;;;;;6178968;23;20424;-88
2023/09/14 10:23:05;;;;;;;;;;;;;;;;;;6155455;23;19912;-87
2023/09/14 10:25:31;;;;;;;;;;;;;;;;;;6154459;23;19904;-88
2023/09/14 10:28:08;;;;;;;;;;;;;;;;;;6155767;23;19974;-87
2023/09/14 10:30:34;;;;;;;;;;;;;;;;;;6181896;23;19943;-88
2023/09/14 10:33:00;;;;;;;;;;;;;;;;;;6180694;23;19908;-87
2023/09/14 10:35:28;;;;;;;;;;;;;;;;;;6179387;23;19912;-88
2023/09/14 10:37:54;;;;;;;;;;;;;;;;;;6153941;23;19919;-88
2023/09/14 10:40:20;;;;;;;;;;;;;;;;;;6153339;23;20323;-88
2023/09/14 10:42:46;;;;;;;;;;;;;;;;;;6154721;23;19995;-87
2023/09/14 10:45:12;;;;;;;;;;;;;;;;;;6156328;23;19986;-87
2023/09/14 10:47:38;;;;;;;;;;;;;;;;;;6155319;23;19908;-87
2023/09/14 10:50:04;;;;;;;;;;;;;;;;;;6154542;23;19914;-88
2023/09/14 10:52:33;;;;;;;;;;;;;;;;;;6155491;23;19932;-88
2023/09/14 10:54:59;;;;;;;;;;;;;;;;;;6154987;23;20390;-88
2023/09/14 10:57:27;;;;;;;;;;;;;;;;;;6154459;23;20039;-88
2023/09/14 10:59:53;;;;;;;;;;;;;;;;;;6154721;23;19915;-88
2023/09/14 11:02:19;;;;;;;;;;;;;;;;;;6180923;23;19912;-88
2023/09/14 11:04:48;;;;;;;;;;;;;;;;;;6154481;23;19904;-88
2023/09/14 11:07:14;;;;;;;;;;;;;;;;;;6154975;23;19904;-87
2023/09/14 11:09:39;;;;;;;;;;;;;;;;;;6182377;23;19908;-87
2023/09/14 11:12:05;;;;;;;;;;;;;;;;;;6154054;23;20321;-88
2023/09/14 11:14:31;;;;;;;;;;;;;;;;;;6154319;23;19911;-88
2023/09/14 11:16:58;;;;;;;;;;;;;;;;;;6180592;23;19919;-88
2023/09/14 11:19:24;;;;;;;;;;;;;;;;;;6155020;23;20470;-88
2023/09/14 11:21:50;;;;;;;;;;;;;;;;;;6154441;23;19908;-88
2023/09/14 11:24:16;;;;;;;;;;;;;;;;;;6155274;23;19951;-88
2023/09/14 11:26:42;;;;;;;;;;;;;;;;;;6157168;23;19983;-88
2023/09/14 11:29:11;;;;;;;;;;;;;;;;;;6181243;23;19905;-88
2023/09/14 11:31:39;;;;;;;;;;;;;;;;;;6183084;23;20517;-88
2023/09/14 11:34:05;;;;;;;;;;;;;;;;;;6155544;23;20404;-88
2023/09/14 11:36:32;;;;;;;;;;;;;;;;;;6155762;23;19913;-88
2023/09/14 11:38:59;;;;;;;;;;;;;;;;;;6181900;23;19927;-87
2023/09/14 11:41:31;;;;;;;;;;;;;;;;;;6156768;23;19916;-88
2023/09/14 11:43:57;;;;;;;;;;;;;;;;;;6157447;23;19954;-88
2023/09/14 11:46:23;;;;;;;;;;;;;;;;;;6154987;23;19905;-87
2023/09/14 11:48:49;;;;;;;;;;;;;;;;;;6154895;23;19904;-87
2023/09/14 11:51:15;;;;;;;;;;;;;;;;;;6153635;23;19912;-87
2023/09/14 11:53:41;;;;;;;;;;;;;;;;;;6155893;23;19905;-87
2023/09/14 11:56:06;;;;;;;;;;;;;;;;;;6155641;23;19912;-87
2023/09/14 11:58:33;;;;;;;;;;;;;;;;;;6156051;23;19915;-87
2023/09/14 12:00:59;;;;;;;;;;;;;;;;;;6155011;23;19908;-85
2023/09/14 12:03:25;;;;;;;;;;;;;;;;;;6154742;23;19909;-86
2023/09/14 12:05:51;;;;;;;;;;;;;;;;;;6154673;23;19971;-86
2023/09/14 12:08:18;;;;;;;;;;;;;;;;;;6155438;23;19904;-86
2023/09/14 12:10:44;;;;;;;;;;;;;;;;;;6181078;23;19915;-87
2023/09/14 12:13:10;;;;;;;;;;;;;;;;;;6154256;23;19909;-88
2023/09/14 12:15:36;;;;;;;;;;;;;;;;;;6180775;23;19908;-87
2023/09/14 12:18:03;;;;;;;;;;;;;;;;;;6154302;23;19998;-87
2023/09/14 12:20:29;;;;;;;;;;;;;;;;;;6181565;23;19904;-87
2023/09/14 12:22:55;;;;;;;;;;;;;;;;;;6155285;23;19911;-87
2023/09/14 12:25:21;;;;;;;;;;;;;;;;;;6181392;23;19931;-87
2023/09/14 12:27:47;;;;;;;;;;;;;;;;;;6154638;23;19905;-87
2023/09/14 12:30:13;;;;;;;;;;;;;;;;;;6154893;23;19904;-88
2023/09/14 12:32:39;;;;;;;;;;;;;;;;;;6155199;23;19931;-87
2023/09/14 12:35:05;;;;;;;;;;;;;;;;;;6153372;23;20720;-87
2023/09/14 12:37:31;;;;;;;;;;;;;;;;;;6182701;23;19904;-87
2023/09/14 12:39:57;;;;;;;;;;;;;;;;;;6154529;23;19904;-87
2023/09/14 12:42:23;;;;;;;;;;;;;;;;;;6155136;23;20374;-87
2023/09/14 12:44:49;;;;;;;;;;;;;;;;;;6156395;23;20222;-87
2023/09/14 12:47:14;;;;;;;;;;;;;;;;;;6155704;23;19964;-91
2023/09/14 12:49:56;;;;;;;;;;;;;;;;;;6157043;23;19912;-92
2023/09/14 12:52:23;;;;;;;;;;;;;;;;;;6158757;23;19911;-93
2023/09/14 12:54:49;;;;;;;;;;;;;;;;;;6158069;23;19908;-91
2023/09/14 12:57:15;;;;;;;;;;;;;;;;;;6158029;23;20461;-92
2023/09/14 12:59:41;;;;;;;;;;;;;;;;;;6156726;23;20241;-92
2023/09/14 13:02:08;;;;;;;;;;;;;;;;;;6157426;23;20342;-92
2023/09/14 13:04:34;;;;;;;;;;;;;;;;;;6183250;23;19908;-91
2023/09/14 13:07:00;;;;;;;;;;;;;;;;;;6156210;23;19909;-91
2023/09/14 13:09:26;;;;;;;;;;;;;;;;;;6157857;23;19909;-90
2023/09/14 13:11:53;;;;;;;;;;;;;;;;;;6156896;23;19904;-91
2023/09/14 13:14:19;;;;;;;;;;;;;;;;;;6156827;23;19983;-92
2023/09/14 13:16:45;;;;;;;;;;;;;;;;;;6158237;23;19943;-92
2023/09/14 13:19:12;;;;;;;;;;;;;;;;;;6157066;23;20568;-93
2023/09/14 13:21:39;;;;;;;;;;;;;;;;;;6156977;23;19904;-91
2023/09/14 13:24:05;;;;;;;;;;;;;;;;;;6157627;23;19915;-92
2023/09/14 13:26:32;;;;;;;;;;;;;;;;;;6184855;23;19987;-92
2023/09/14 13:28:58;;;;;;;;;;;;;;;;;;6157219;23;19908;-91
2023/09/14 13:31:23;;;;;;;;;;;;;;;;;;6157788;23;19915;-91
2023/09/14 13:33:49;;;;;;;;;;;;;;;;;;6157704;23;19909;-90
2023/09/14 13:36:15;;;;;;;;;;;;;;;;;;6183971;23;19930;-91
2023/09/14 13:38:41;;;;;;;;;;;;;;;;;;6158396;23;19912;-92
2023/09/14 13:41:07;;;;;;;;;;;;;;;;;;6184144;23;19929;-91
2023/09/14 13:43:33;;;;;;;;;;;;;;;;;;6159887;22;20007;-92
2023/09/14 13:46:06;;;;;;;;;;;;;;;;;;6184066;23;19916;-93
2023/09/14 13:48:32;;;;;;;;;;;;;;;;;;6159171;23;20323;-93
2023/09/14 13:51:01;;;;;;;;;;;;;;;;;;6160253;23;19909;-92
2023/09/14 13:53:27;;;;;;;;;;;;;;;;;;6162626;23;20327;-93
2023/09/14 13:55:53;;;;;;;;;;;;;;;;;;6161637;23;20226;-91
2023/09/14 13:58:19;;;;;;;;;;;;;;;;;;6155771;23;19908;-90
2023/09/14 14:00:45;;;;;;;;;;;;;;;;;;6154749;23;20247;-89
2023/09/14 14:03:11;;;;;;;;;;;;;;;;;;6158255;23;19916;-88
2023/09/14 14:05:41;;;;;;;;;;;;;;;;;;6156705;23;19928;-89
2023/09/14 14:08:07;;;;;;;;;;;;;;;;;;6183519;23;19915;-88
2023/09/14 14:10:33;;;;;;;;;;;;;;;;;;6156898;23;19908;-88
2023/09/14 14:12:59;;;;;;;;;;;;;;;;;;6156296;23;19904;-88
2023/09/14 14:15:25;;;;;;;;;;;;;;;;;;6157069;23;19912;-89
2023/09/14 14:17:53;;;;;;;;;;;;;;;;;;6156649;23;19905;-89
2023/09/14 14:20:19;;;;;;;;;;;;;;;;;;6156003;23;19904;-89
2023/09/14 14:22:45;;;;;;;;;;;;;;;;;;6156686;23;19904;-89
2023/09/14 14:25:11;;;;;;;;;;;;;;;;;;6155969;23;19912;-88
2023/09/14 14:27:40;;;;;;;;;;;;;;;;;;6158932;23;19904;-93
2023/09/14 14:30:06;;;;;;;;;;;;;;;;;;6161184;23;19908;-93
2023/09/14 14:32:34;;;;;;;;;;;;;;;;;;6161546;23;20319;-92
2023/09/14 14:35:00;;;;;;;;;;;;;;;;;;6160417;23;19908;-93
2023/09/14 14:37:26;;;;;;;;;;;;;;;;;;6161313;23;19923;-92
2023/09/14 14:39:52;;;;;;;;;;;;;;;;;;6160122;23;20323;-91
2023/09/14 14:42:18;;;;;;;;;;;;;;;;;;6159852;23;19909;-93
2023/09/14 14:44:45;;;;;;;;;;;;;;;;;;6163735;23;19943;-93
2023/09/14 14:47:11;;;;;;;;;;;;;;;;;;6159345;23;20220;-93
2023/09/14 14:49:36;;;;;;;;;;;;;;;;;;6159457;23;19911;-93
2023/09/14 14:52:02;;;;;;;;;;;;;;;;;;6157054;23;19919;-93
2023/09/14 14:54:28;;;;;;;;;;;;;;;;;;6155823;23;19927;-91
2023/09/14 14:56:54;;;;;;;;;;;;;;;;;;6155857;23;20309;-92
2023/09/14 14:59:20;;;;;;;;;;;;;;;;;;6153891;23;19916;-93
2023/09/14 15:01:47;;;;;;;;;;;;;;;;;;6156011;23;19908;-92
2023/09/14 15:04:13;;;;;;;;;;;;;;;;;;6155372;23;19919;-92
2023/09/14 15:06:39;;;;;;;;;;;;;;;;;;6154919;23;19908;-89
2023/09/14 15:09:05;;;;;;;;;;;;;;;;;;6153184;23;19915;-88
2023/09/14 15:11:31;;;;;;;;;;;;;;;;;;6153445;23;20290;-90
2023/09/14 15:13:58;;;;;;;;;;;;;;;;;;6152768;23;19904;-89
2023/09/14 15:16:24;;;;;;;;;;;;;;;;;;6153915;23;19916;-89
2023/09/14 15:18:50;;;;;;;;;;;;;;;;;;6153729;23;19909;-89
2023/09/14 15:21:16;;;;;;;;;;;;;;;;;;6153484;23;19911;-89
2023/09/14 15:23:42;;;;;;;;;;;;;;;;;;6153890;23;19904;-89
2023/09/14 15:26:08;;;;;;;;;;;;;;;;;;6152261;23;19904;-89
2023/09/14 15:28:34;;;;;;;;;;;;;;;;;;6152757;23;19922;-89
2023/09/14 15:31:01;;;;;;;;;;;;;;;;;;6153167;23;19979;-89
2023/09/14 15:33:27;;;;;;;;;;;;;;;;;;6152955;23;19947;-89
2023/09/14 15:35:53;;;;;;;;;;;;;;;;;;6153408;23;19916;-89
2023/09/14 15:38:19;;;;;;;;;;;;;;;;;;6153480;23;19908;-92
2023/09/14 15:40:45;;;;;;;;;;;;;;;;;;6156268;23;20219;-92
2023/09/14 15:43:11;;;;;;;;;;;;;;;;;;6155068;23;19908;-93
2023/09/14 15:45:36;;;;;;;;;;;;;;;;;;6157964;23;19924;-93
2023/09/14 15:48:03;;;;;;;;;;;;;;;;;;6155978;23;19949;-94
2023/09/14 15:50:29;;;;;;;;;;;;;;;;;;6155555;23;19909;-94
2023/09/14 15:52:55;;;;;;;;;;;;;;;;;;6156598;23;19931;-93
2023/09/14 15:55:21;;;;;;;;;;;;;;;;;;6155474;23;19914;-93
2023/09/14 15:57:47;;;;;;;;;;;;;;;;;;6156912;23;19974;-92
2023/09/14 16:00:13;;;;;;;;;;;;;;;;;;6155788;23;19987;-91
2023/09/14 16:02:39;;;;;;;;;;;;;;;;;;6156748;23;19908;-92
2023/09/14 16:05:08;;;;;;;;;;;;;;;;;;6157607;23;20319;-92
2023/09/14 16:07:34;;;;;;;;;;;;;;;;;;6156616;23;19904;-92
2023/09/14 16:10:00;;;;;;;;;;;;;;;;;;6159984;23;19912;-91
2023/09/14 16:12:26;;;;;;;;;;;;;;;;;;6157451;23;19904;-93
2023/09/14 16:14:51;;;;;;;;;;;;;;;;;;6156934;23;20331;-93
2023/09/14 16:17:17;;;;;;;;;;;;;;;;;;6156334;23;20006;-89
2023/09/14 16:19:44;;;;;;;;;;;;;;;;;;6155190;23;19908;-89
2023/09/14 16:22:10;;;;;;;;;;;;;;;;;;6153866;23;19972;-89
2023/09/14 16:24:36;;;;;;;;;;;;;;;;;;6154716;23;19905;-88
2023/09/14 16:27:02;;;;;;;;;;;;;;;;;;6154435;23;19904;-89
2023/09/14 16:29:28;;;;;;;;;;;;;;;;;;6180898;23;19935;-88
2023/09/14 16:31:54;;;;;;;;;;;;;;;;;;6154684;23;19948;-89
2023/09/14 16:34:20;;;;;;;;;;;;;;;;;;6154320;23;19932;-89
2023/09/14 16:36:46;;;;;;;;;;;;;;;;;;6154193;23;20595;-89
2023/09/14 16:39:12;;;;;;;;;;;;;;;;;;6154117;23;19924;-88